Time;durP1;ratioP1;P1;durP2;ratioP2;P2;SDS_P1;SDS_P2;PMS_P1;PMS_P2;Temp;Humidity;BMP_temperature;BMP_pressure;BME280_temperature;BME280_humidity;BME280_pressure;Samples;Min_cycle;Max_cycle;Signal;HPM_P1;HPM_P2
2021/09/23 00:01:48;;;;;;;1.75;1.40;;;17.00;53.70;;;;;;5073724;28;20230;-48
2021/09/23 00:04:32;;;;;;;1.35;1.20;;;17.00;53.60;;;;;;5073787;28;20639;-55
2021/09/23 00:07:05;;;;;;;2.47;1.40;;;17.10;53.70;;;;;;5073349;28;20277;-46
2021/09/23 00:09:35;;;;;;;1.63;1.52;;;17.10;53.70;;;;;;5073156;28;20608;-46
2021/09/23 00:12:06;;;;;;;1.40;1.30;;;17.10;53.60;;;;;;5073664;28;20229;-57
2021/09/23 00:14:36;;;;;;;1.40;1.30;;;17.10;53.60;;;;;;5073500;28;20195;-55
2021/09/23 00:17:07;;;;;;;1.33;1.23;;;17.10;53.50;;;;;;5072898;28;20227;-54
2021/09/23 00:19:37;;;;;;;1.40;1.25;;;17.10;53.60;;;;;;5072728;28;20237;-49
2021/09/23 00:22:09;;;;;;;2.05;1.48;;;17.10;53.60;;;;;;5073066;28;20261;-48
2021/09/23 00:24:40;;;;;;;1.52;1.42;;;17.20;53.70;;;;;;5073500;28;20238;-60
2021/09/23 00:27:10;;;;;;;1.40;1.30;;;17.20;53.70;;;;;;5073266;28;20344;-51
2021/09/23 00:29:41;;;;;;;1.50;1.13;;;17.20;53.60;;;;;;5073469;28;20294;-51
2021/09/23 00:32:12;;;;;;;1.58;1.30;;;17.30;53.70;;;;;;5071515;28;20352;-64
2021/09/23 00:34:42;;;;;;;2.03;1.60;;;17.30;53.60;;;;;;5072865;28;20222;-49
2021/09/23 00:37:15;;;;;;;1.55;1.30;;;17.30;53.60;;;;;;5073081;28;20234;-46
2021/09/23 00:39:46;;;;;;;1.17;1.08;;;17.30;53.50;;;;;;5072655;28;20646;-50
2021/09/23 00:42:16;;;;;;;1.23;1.13;;;17.30;53.50;;;;;;5071415;28;20856;-46
2021/09/23 00:44:56;;;;;;;1.40;1.30;;;17.40;53.60;;;;;;5072859;28;20653;-50
2021/09/23 00:47:27;;;;;;;1.30;1.20;;;17.40;53.60;;;;;;5067915;28;20214;-64
2021/09/23 00:49:57;;;;;;;1.27;1.17;;;17.40;53.50;;;;;;5052941;28;20227;-64
2021/09/23 00:52:31;;;;;;;1.40;1.30;;;17.40;53.50;;;;;;5052897;28;20671;-52
2021/09/23 00:55:01;;;;;;;1.23;1.13;;;17.40;53.50;;;;;;5053018;28;20602;-56
2021/09/23 00:57:32;;;;;;;1.40;1.10;;;17.40;53.50;;;;;;5052342;28;20281;-50
2021/09/23 01:00:02;;;;;;;1.48;1.17;;;17.50;53.50;;;;;;5052897;28;20200;-45
2021/09/23 01:02:33;;;;;;;1.50;1.30;;;17.50;53.50;;;;;;5058905;28;20218;-48
2021/09/23 01:05:03;;;;;;;1.20;1.10;;;17.50;53.50;;;;;;5072570;28;20285;-48
2021/09/23 01:07:35;;;;;;;1.38;1.17;;;17.50;53.60;;;;;;5071994;28;20344;-52
2021/09/23 01:10:06;;;;;;;1.40;1.30;;;17.50;53.60;;;;;;5072366;28;20222;-51
2021/09/23 01:12:36;;;;;;;2.58;1.10;;;17.60;53.50;;;;;;5072568;28;20242;-47
2021/09/23 01:15:08;;;;;;;1.20;1.10;;;17.60;53.50;;;;;;5072151;28;20191;-47
2021/09/23 01:17:38;;;;;;;1.33;1.20;;;17.60;53.50;;;;;;5071839;28;20747;-53
2021/09/23 01:20:09;;;;;;;1.35;1.25;;;17.60;53.50;;;;;;5072146;28;20685;-47
2021/09/23 01:22:42;;;;;;;1.17;1.08;;;17.70;53.50;;;;;;5071991;28;20316;-51
2021/09/23 01:25:13;;;;;;;1.35;1.25;;;17.70;53.50;;;;;;5072246;28;20233;-53
2021/09/23 01:27:43;;;;;;;1.42;1.10;;;17.70;53.50;;;;;;5072049;28;20254;-46
2021/09/23 01:30:14;;;;;;;1.73;1.20;;;17.70;53.50;;;;;;5072559;28;20246;-47
2021/09/23 01:32:45;;;;;;;1.55;1.20;;;17.70;53.50;;;;;;5071281;28;20647;-57
2021/09/23 01:35:15;;;;;;;1.30;1.20;;;17.70;53.50;;;;;;5071885;28;20234;-46
2021/09/23 01:37:48;;;;;;;1.20;1.00;;;17.70;53.50;;;;;;5071730;28;20307;-48
2021/09/23 01:40:18;;;;;;;1.40;1.17;;;17.80;53.60;;;;;;5071779;28;20234;-55
2021/09/23 01:42:49;;;;;;;1.42;1.30;;;17.80;53.50;;;;;;5072038;28;20289;-58
2021/09/23 01:45:19;;;;;;;1.20;1.10;;;17.80;53.50;;;;;;5071655;28;20237;-50
2021/09/23 01:47:49;;;;;;;1.17;1.08;;;17.80;53.50;;;;;;5071640;28;20283;-46
2021/09/23 01:50:20;;;;;;;1.20;0.93;;;17.80;53.50;;;;;;5071622;28;20195;-50
2021/09/23 01:52:52;;;;;;;1.00;0.90;;;17.90;53.50;;;;;;5071720;28;20233;-49
2021/09/23 01:55:23;;;;;;;1.50;1.13;;;17.90;53.50;;;;;;5071689;28;20248;-47
2021/09/23 01:57:53;;;;;;;1.17;1.10;;;17.90;53.50;;;;;;5071464;28;20268;-54
2021/09/23 02:00:24;;;;;;;1.10;1.00;;;18.00;53.50;;;;;;5071516;28;20654;-46
2021/09/23 02:02:55;;;;;;;1.52;1.13;;;18.00;53.50;;;;;;5071258;28;20230;-52
2021/09/23 02:05:26;;;;;;;1.40;1.30;;;18.00;53.50;;;;;;5071440;28;20199;-63
2021/09/23 02:07:58;;;;;;;1.38;1.27;;;18.00;53.50;;;;;;5071450;28;20646;-49
2021/09/23 02:10:28;;;;;;;1.40;1.30;;;18.00;53.50;;;;;;5071324;28;20230;-49
2021/09/23 02:12:59;;;;;;;1.33;1.20;;;18.00;53.50;;;;;;5071164;28;20242;-65
2021/09/23 02:15:29;;;;;;;1.88;1.00;;;18.00;53.50;;;;;;5071120;28;20285;-47
2021/09/23 02:18:00;;;;;;;0.90;0.90;;;18.00;53.50;;;;;;5069901;28;20635;-52
2021/09/23 02:20:30;;;;;;;1.48;1.10;;;18.00;53.50;;;;;;5071303;28;20670;-47
2021/09/23 02:23:02;;;;;;;1.17;0.98;;;18.00;53.60;;;;;;5071212;28;20261;-52
2021/09/23 02:25:33;;;;;;;1.90;1.40;;;18.10;53.60;;;;;;5070989;28;20230;-49
2021/09/23 02:28:10;;;;;;;1.25;1.05;;;18.10;53.60;;;;;;5070975;28;20264;-49
2021/09/23 02:30:41;;;;;;;1.00;1.00;;;18.10;53.60;;;;;;5071181;28;20230;-48
2021/09/23 02:33:11;;;;;;;0.85;0.85;;;18.10;53.60;;;;;;5071074;28;20290;-49
2021/09/23 02:35:41;;;;;;;1.58;1.20;;;18.10;53.50;;;;;;5071249;28;20230;-56
2021/09/23 02:38:14;;;;;;;1.75;1.20;;;18.10;53.50;;;;;;5070883;28;20311;-54
2021/09/23 02:40:46;;;;;;;1.35;1.25;;;18.10;53.50;;;;;;5070403;28;20229;-47
2021/09/23 02:43:16;;;;;;;1.67;1.58;;;18.10;53.60;;;;;;5072460;28;20286;-52
2021/09/23 02:45:47;;;;;;;2.30;2.10;;;18.10;53.60;;;;;;5072038;28;20219;-57
2021/09/23 02:48:17;;;;;;;1.50;1.40;;;18.10;53.60;;;;;;5054683;28;20698;-52
2021/09/23 02:50:48;;;;;;;1.45;1.30;;;18.20;53.60;;;;;;5055063;28;20295;-49
2021/09/23 02:53:20;;;;;;;1.50;1.40;;;18.20;53.60;;;;;;5054894;28;20234;-54
2021/09/23 02:55:51;;;;;;;1.40;1.30;;;18.10;53.60;;;;;;5055135;28;20398;-54
2021/09/23 02:58:21;;;;;;;1.85;1.20;;;18.20;53.60;;;;;;5070117;28;20246;-50
2021/09/23 03:00:52;;;;;;;1.80;1.48;;;18.10;53.50;;;;;;5074785;28;20195;-48
2021/09/23 03:03:22;;;;;;;1.60;1.50;;;18.20;53.60;;;;;;5074575;28;20309;-47
2021/09/23 03:05:52;;;;;;;1.95;1.70;;;18.20;53.50;;;;;;5074791;28;20217;-56
2021/09/23 03:08:25;;;;;;;1.88;1.38;;;18.20;53.50;;;;;;5074595;28;20257;-48
2021/09/23 03:10:55;;;;;;;1.67;1.58;;;18.20;53.50;;;;;;5074365;28;20226;-50
2021/09/23 03:13:26;;;;;;;1.30;1.20;;;18.20;53.50;;;;;;5074149;28;20230;-55
2021/09/23 03:15:56;;;;;;;1.40;1.30;;;18.20;53.50;;;;;;5074509;28;20222;-47
2021/09/23 03:18:27;;;;;;;2.05;1.60;;;18.20;53.50;;;;;;5074633;28;20258;-53
2021/09/23 03:20:57;;;;;;;1.58;1.40;;;18.20;53.50;;;;;;5074242;28;20244;-56
2021/09/23 03:23:29;;;;;;;1.35;1.25;;;18.20;53.40;;;;;;5073526;28;20312;-55
2021/09/23 03:26:00;;;;;;;1.35;1.25;;;18.20;53.50;;;;;;5074553;28;20241;-55
2021/09/23 03:28:30;;;;;;;1.52;1.42;;;18.20;53.50;;;;;;5074771;28;20317;-50
2021/09/23 03:31:01;;;;;;;1.70;1.60;;;18.20;53.50;;;;;;5073897;28;20210;-49
2021/09/23 03:33:31;;;;;;;1.60;1.50;;;18.20;53.50;;;;;;5074095;28;20202;-48
2021/09/23 03:36:02;;;;;;;1.70;1.60;;;18.20;53.60;;;;;;5074329;28;20222;-48
2021/09/23 03:38:34;;;;;;;1.50;1.40;;;18.20;53.50;;;;;;5074568;28;20246;-47
2021/09/23 03:41:04;;;;;;;1.60;1.50;;;18.20;53.60;;;;;;5073946;28;20234;-53
2021/09/23 03:43:35;;;;;;;2.28;1.30;;;18.20;53.60;;;;;;5073978;28;20261;-57
2021/09/23 03:46:05;;;;;;;1.67;1.58;;;18.20;53.60;;;;;;5074306;28;20256;-47
2021/09/23 03:48:36;;;;;;;1.75;1.65;;;18.20;53.50;;;;;;5074372;28;20215;-47
2021/09/23 03:51:06;;;;;;;2.10;1.90;;;18.20;53.50;;;;;;5074199;28;20614;-47
2021/09/23 03:53:39;;;;;;;1.90;1.75;;;18.20;53.50;;;;;;5074142;28;20195;-57
2021/09/23 03:56:12;;;;;;;2.33;1.83;;;18.20;53.50;;;;;;5073226;28;20230;-56
2021/09/23 03:58:42;;;;;;;2.20;2.00;;;18.20;53.50;;;;;;5074009;28;20215;-51
2021/09/23 04:01:17;;;;;;;2.67;2.03;;;18.20;53.60;;;;;;5073155;28;20238;-53
2021/09/23 04:03:47;;;;;;;2.55;1.90;;;18.20;53.60;;;;;;5072940;28;20238;-60
2021/09/23 04:06:18;;;;;;;2.10;1.90;;;18.20;53.60;;;;;;5073906;28;20233;-51
2021/09/23 04:08:51;;;;;;;2.38;2.00;;;18.20;53.60;;;;;;5073913;28;20250;-46
2021/09/23 04:11:21;;;;;;;2.92;1.95;;;18.20;53.60;;;;;;5073556;28;20231;-61
2021/09/23 04:13:52;;;;;;;2.88;2.22;;;18.20;53.50;;;;;;5073505;28;20195;-64
2021/09/23 04:16:22;;;;;;;2.88;2.13;;;18.20;53.60;;;;;;5073332;28;20234;-47
2021/09/23 04:18:53;;;;;;;2.55;2.30;;;18.10;53.50;;;;;;5073383;28;20250;-51
2021/09/23 04:21:23;;;;;;;2.70;2.50;;;18.10;53.60;;;;;;5073875;28;20203;-55
2021/09/23 04:23:55;;;;;;;2.40;2.20;;;18.10;53.50;;;;;;5073300;28;20266;-46
2021/09/23 04:26:26;;;;;;;2.20;2.00;;;18.10;53.50;;;;;;5073350;28;20226;-54
2021/09/23 04:28:56;;;;;;;2.35;2.03;;;18.10;53.50;;;;;;5073572;28;20253;-61
2021/09/23 04:31:27;;;;;;;2.63;2.17;;;18.10;53.50;;;;;;5073466;28;20226;-52
2021/09/23 04:33:57;;;;;;;2.55;2.35;;;18.10;53.50;;;;;;5073253;28;20226;-56
2021/09/23 04:36:28;;;;;;;3.15;2.60;;;18.10;53.60;;;;;;5073056;28;20245;-48
2021/09/23 04:39:00;;;;;;;2.50;2.30;;;18.10;53.60;;;;;;5066369;28;20243;-51
2021/09/23 04:41:30;;;;;;;2.90;2.60;;;18.10;53.60;;;;;;5054576;28;20238;-54
2021/09/23 04:44:01;;;;;;;2.88;2.45;;;18.10;53.60;;;;;;5072830;28;20234;-51
2021/09/23 04:46:31;;;;;;;3.22;2.30;;;18.10;53.60;;;;;;5072818;28;20279;-54
2021/09/23 04:49:02;;;;;;;3.13;2.55;;;18.10;53.50;;;;;;5072470;28;20298;-51
2021/09/23 04:51:32;;;;;;;3.15;2.20;;;18.10;53.60;;;;;;5072229;28;20195;-51
2021/09/23 04:54:06;;;;;;;3.05;2.50;;;18.10;54.20;;;;;;5072433;28;20223;-55
2021/09/23 04:56:37;;;;;;;2.20;2.00;;;18.10;53.60;;;;;;5072899;28;20190;-49
2021/09/23 04:59:07;;;;;;;3.15;2.80;;;18.10;53.50;;;;;;5073056;28;20246;-47
2021/09/23 05:01:38;;;;;;;3.55;3.00;;;18.10;53.50;;;;;;5072719;28;20688;-51
2021/09/23 05:04:08;;;;;;;3.00;2.65;;;18.00;53.50;;;;;;5072490;28;20234;-47
2021/09/23 05:06:39;;;;;;;3.20;2.50;;;18.10;53.60;;;;;;5071593;28;20606;-47
2021/09/23 05:09:11;;;;;;;2.70;2.50;;;18.00;53.50;;;;;;5072133;28;20618;-63
2021/09/23 05:11:41;;;;;;;2.42;2.22;;;18.00;53.60;;;;;;5072829;28;20729;-58
2021/09/23 05:14:16;;;;;;;2.60;2.40;;;18.00;53.60;;;;;;5072881;28;20234;-47
2021/09/23 05:16:47;;;;;;;3.15;2.85;;;18.00;53.60;;;;;;5072585;28;20205;-61
2021/09/23 05:19:17;;;;;;;2.67;2.47;;;18.00;53.70;;;;;;5072406;28;20254;-47
2021/09/23 05:21:47;;;;;;;2.60;2.25;;;18.00;53.70;;;;;;5072080;28;20354;-49
2021/09/23 05:24:20;;;;;;;2.85;2.58;;;18.00;53.60;;;;;;5072268;28;20676;-54
2021/09/23 05:26:50;;;;;;;2.90;2.58;;;18.00;53.70;;;;;;5072191;28;20194;-58
2021/09/23 05:29:21;;;;;;;2.78;2.55;;;18.00;53.60;;;;;;5072700;28;20288;-46
2021/09/23 05:31:51;;;;;;;2.63;2.28;;;18.00;53.50;;;;;;5072016;28;20231;-58
2021/09/23 05:34:22;;;;;;;2.50;2.30;;;18.00;53.50;;;;;;5071106;28;20299;-51
2021/09/23 05:36:52;;;;;;;2.55;2.35;;;18.00;53.60;;;;;;5072195;28;20200;-50
2021/09/23 05:39:24;;;;;;;3.08;2.78;;;18.00;53.50;;;;;;5071987;28;20226;-61
2021/09/23 05:41:55;;;;;;;3.05;2.30;;;18.00;53.50;;;;;;5072271;28;20623;-57
2021/09/23 05:44:25;;;;;;;3.08;2.78;;;18.00;53.50;;;;;;5072676;28;20695;-50
2021/09/23 05:46:56;;;;;;;3.33;2.78;;;18.00;53.50;;;;;;5071940;28;20241;-56
2021/09/23 05:49:26;;;;;;;10.23;2.80;;;18.00;53.50;;;;;;5071667;28;20230;-59
2021/09/23 05:51:59;;;;;;;3.58;2.88;;;18.00;53.40;;;;;;5071997;28;20235;-49
2021/09/23 05:54:31;;;;;;;7.25;3.53;;;18.00;53.50;;;;;;5064586;28;20187;-48
2021/09/23 05:57:02;;;;;;;11.73;3.42;;;18.00;53.50;;;;;;5050204;28;20278;-45
2021/09/23 05:59:32;;;;;;;12.90;4.03;;;18.00;53.60;;;;;;5050584;28;20292;-55
2021/09/23 06:02:02;;;;;;;7.05;3.88;;;18.00;53.70;;;;;;5051919;28;20230;-58
2021/09/23 06:04:33;;;;;;;7.95;3.70;;;18.00;54.00;;;;;;5065440;28;20284;-47
2021/09/23 06:07:03;;;;;;;8.30;4.32;;;18.00;54.10;;;;;;5063575;28;20804;-51
2021/09/23 06:09:36;;;;;;;7.93;3.83;;;18.10;54.20;;;;;;5070362;28;20680;-48
2021/09/23 06:12:07;;;;;;;9.80;4.60;;;18.10;54.10;;;;;;5070606;28;20230;-54
2021/09/23 06:14:37;;;;;;;13.32;4.55;;;18.10;54.20;;;;;;5064616;28;20274;-57
2021/09/23 06:17:08;;;;;;;13.13;4.88;;;18.10;54.20;;;;;;5050066;28;20233;-52
2021/09/23 06:19:38;;;;;;;7.88;4.57;;;18.10;54.20;;;;;;5050864;28;20227;-47
2021/09/23 06:22:08;;;;;;;10.70;4.93;;;18.10;54.20;;;;;;5050879;28;20227;-47
2021/09/23 06:24:41;;;;;;;11.13;4.88;;;18.10;54.10;;;;;;5049781;28;20309;-50
2021/09/23 06:27:11;;;;;;;15.15;5.57;;;18.10;54.10;;;;;;5051510;28;20229;-46
2021/09/23 06:29:42;;;;;;;8.10;4.82;;;18.10;54.10;;;;;;5070368;28;20677;-46
2021/09/23 06:32:13;;;;;;;8.80;4.90;;;18.10;53.90;;;;;;5071036;28;20233;-53
2021/09/23 06:34:44;;;;;;;10.80;6.68;;;18.10;53.80;;;;;;5070031;28;20186;-47
2021/09/23 06:37:15;;;;;;;8.15;4.78;;;18.10;53.90;;;;;;5068679;28;20230;-50
2021/09/23 06:39:50;;;;;;;12.35;5.88;;;18.00;54.00;;;;;;5069703;28;20222;-46
2021/09/23 06:42:21;;;;;;;9.32;5.80;;;18.00;54.10;;;;;;5058131;28;20349;-47
2021/09/23 06:44:51;;;;;;;7.95;6.10;;;18.00;54.30;;;;;;5050923;28;20266;-52
2021/09/23 06:47:22;;;;;;;11.13;6.63;;;18.00;54.20;;;;;;5051323;28;20256;-49
2021/09/23 06:49:52;;;;;;;12.43;7.40;;;18.00;54.30;;;;;;5051035;28;20234;-53
2021/09/23 06:52:22;;;;;;;8.90;5.75;;;18.00;54.40;;;;;;5051055;28;20234;-51
2021/09/23 06:54:55;;;;;;;12.50;7.28;;;18.00;54.20;;;;;;5050519;28;20227;-46
2021/09/23 06:57:26;;;;;;;12.82;7.15;;;18.00;54.30;;;;;;5050271;28;20220;-47
2021/09/23 06:59:56;;;;;;;10.68;6.95;;;18.00;54.30;;;;;;5050476;28;20235;-46
2021/09/23 07:02:27;;;;;;;8.38;6.97;;;18.00;54.30;;;;;;5055594;28;20230;-47
2021/09/23 07:04:57;;;;;;;8.18;6.68;;;18.00;54.40;;;;;;5069747;28;20258;-47
2021/09/23 07:07:28;;;;;;;11.98;7.28;;;18.00;54.30;;;;;;5070327;28;20219;-48
2021/09/23 07:10:01;;;;;;;10.85;6.97;;;17.90;54.40;;;;;;5070889;28;20226;-51
2021/09/23 07:12:32;;;;;;;10.23;7.20;;;18.00;54.50;;;;;;5070484;28;20651;-48
2021/09/23 07:15:02;;;;;;;10.93;6.53;;;18.00;54.40;;;;;;5070185;28;20234;-46
2021/09/23 07:17:33;;;;;;;8.55;6.32;;;18.00;54.40;;;;;;5070294;28;20234;-48
2021/09/23 07:20:03;;;;;;;10.32;6.47;;;18.00;54.50;;;;;;5070638;28;20662;-46
2021/09/23 07:22:34;;;;;;;10.02;6.60;;;18.00;54.50;;;;;;5070690;28;20698;-48
2021/09/23 07:25:06;;;;;;;9.23;6.97;;;17.90;54.50;;;;;;5070554;28;20269;-47
2021/09/23 07:27:37;;;;;;;9.13;6.80;;;17.90;54.70;;;;;;5070487;28;20262;-47
2021/09/23 07:30:08;;;;;;;10.02;6.57;;;17.90;54.80;;;;;;5072285;28;20249;-46
2021/09/23 07:32:38;;;;;;;12.00;6.60;;;18.00;54.90;;;;;;5074145;28;20234;-49
2021/09/23 07:35:09;;;;;;;11.20;6.95;;;17.90;54.80;;;;;;5073989;28;20236;-52
2021/09/23 07:37:39;;;;;;;10.73;7.10;;;18.00;54.90;;;;;;5073870;28;20258;-49
2021/09/23 07:40:13;;;;;;;8.70;6.38;;;17.90;54.80;;;;;;5073999;28;20241;-46
2021/09/23 07:42:44;;;;;;;8.52;7.13;;;17.90;55.00;;;;;;5073797;28;20195;-47
2021/09/23 07:45:14;;;;;;;8.63;6.00;;;17.90;54.70;;;;;;5073537;28;20262;-47
2021/09/23 07:47:45;;;;;;;9.65;6.72;;;17.90;54.70;;;;;;5073188;28;20265;-47
2021/09/23 07:50:16;;;;;;;9.85;5.63;;;17.90;54.70;;;;;;5069060;28;20280;-46
2021/09/23 07:52:46;;;;;;;9.90;6.72;;;17.90;54.60;;;;;;5072096;28;20662;-49
2021/09/23 07:55:18;;;;;;;7.78;6.10;;;17.90;54.50;;;;;;5072586;28;20226;-52
2021/09/23 07:57:49;;;;;;;8.80;6.28;;;17.90;54.40;;;;;;5071421;28;20799;-51
2021/09/23 08:00:20;;;;;;;10.00;6.57;;;17.90;54.50;;;;;;5072589;28;20242;-46
2021/09/23 08:02:51;;;;;;;7.55;6.00;;;17.80;54.40;;;;;;5072041;28;20666;-48
2021/09/23 08:05:22;;;;;;;7.35;5.70;;;17.80;54.50;;;;;;5073066;28;20230;-52
2021/09/23 08:07:52;;;;;;;7.63;5.78;;;17.80;54.50;;;;;;5072200;28;20306;-51
2021/09/23 08:10:25;;;;;;;7.32;6.13;;;17.80;54.40;;;;;;5071111;28;20439;-47
2021/09/23 08:12:55;;;;;;;9.15;6.30;;;17.80;54.40;;;;;;5073085;28;20234;-48
2021/09/23 08:15:26;;;;;;;7.82;6.18;;;17.80;54.40;;;;;;5072539;28;20730;-47
2021/09/23 08:17:56;;;;;;;6.85;5.97;;;17.80;54.40;;;;;;5071937;28;20644;-50
2021/09/23 08:20:27;;;;;;;8.27;5.60;;;17.80;54.40;;;;;;5070880;28;20678;-51
2021/09/23 08:22:57;;;;;;;8.75;5.97;;;17.80;54.30;;;;;;5072359;28;20194;-47
2021/09/23 08:25:30;;;;;;;6.18;5.55;;;17.80;54.30;;;;;;5070642;28;20261;-48
2021/09/23 08:28:00;;;;;;;6.55;5.47;;;17.80;54.30;;;;;;5071525;28;20254;-47
2021/09/23 08:30:31;;;;;;;7.35;5.68;;;17.80;54.40;;;;;;5072075;28;20264;-49
2021/09/23 08:33:01;;;;;;;7.15;5.40;;;17.70;54.30;;;;;;5069379;28;20238;-46
2021/09/23 08:35:32;;;;;;;9.55;5.93;;;17.70;54.30;;;;;;5072042;28;20199;-48
2021/09/23 08:38:02;;;;;;;6.70;5.60;;;17.70;54.30;;;;;;5071920;28;20246;-46
2021/09/23 08:40:34;;;;;;;5.68;4.75;;;17.70;54.30;;;;;;5070356;28;20198;-45
2021/09/23 08:43:05;;;;;;;8.00;5.40;;;17.70;54.30;;;;;;5066730;28;20630;-49
2021/09/23 08:45:35;;;;;;;8.10;5.38;;;17.70;54.30;;;;;;5070637;28;20725;-48
2021/09/23 08:48:06;;;;;;;7.55;5.40;;;17.70;54.30;;;;;;5071986;28;20675;-48
2021/09/23 08:50:36;;;;;;;5.82;4.90;;;17.70;54.30;;;;;;5051755;28;20295;-47
2021/09/23 08:53:08;;;;;;;5.65;4.97;;;17.70;54.40;;;;;;5052039;28;20227;-47
2021/09/23 08:55:41;;;;;;;6.40;5.28;;;17.70;54.40;;;;;;5051992;28;20282;-47
2021/09/23 08:58:11;;;;;;;7.63;5.82;;;17.70;54.40;;;;;;5051516;28;20255;-48
2021/09/23 09:01:01;;;;;;;6.60;4.93;;;17.70;54.30;;;;;;5070700;28;20260;-46
2021/09/23 09:03:33;;;;;;;6.43;5.50;;;17.70;54.30;;;;;;5071884;28;20242;-48
2021/09/23 09:06:05;;;;;;;7.03;5.65;;;17.60;54.30;;;;;;5070342;28;20250;-46
2021/09/23 09:08:35;;;;;;;5.75;5.15;;;17.60;54.30;;;;;;5071835;28;20450;-47
2021/09/23 09:11:09;;;;;;;6.22;4.68;;;17.60;54.20;;;;;;5071115;28;20616;-47
2021/09/23 09:13:40;;;;;;;8.55;5.00;;;17.60;54.20;;;;;;5071521;28;20233;-48
2021/09/23 09:16:11;;;;;;;6.00;5.28;;;17.60;54.30;;;;;;5071531;28;20854;-58
2021/09/23 09:18:41;;;;;;;6.70;5.65;;;17.60;54.40;;;;;;5071739;28;20264;-46
2021/09/23 09:21:12;;;;;;;7.68;5.57;;;17.60;54.40;;;;;;5070948;28;20241;-49
2021/09/23 09:23:47;;;;;;;6.45;4.95;;;17.60;54.40;;;;;;5070486;28;20256;-52
2021/09/23 09:26:24;;;;;;;7.35;5.28;;;17.60;54.90;;;;;;5069667;28;20261;-46
2021/09/23 09:28:55;;;;;;;6.50;5.13;;;17.60;55.20;;;;;;5063087;28;20219;-48
2021/09/23 09:31:25;;;;;;;6.82;5.22;;;17.60;55.10;;;;;;5050904;28;20219;-49
2021/09/23 09:33:57;;;;;;;7.55;5.00;;;17.60;55.10;;;;;;5068252;28;20230;-59
2021/09/23 09:36:32;;;;;;;6.50;4.85;;;17.60;55.10;;;;;;5071703;28;20560;-46
2021/09/23 09:39:03;;;;;;;6.38;4.88;;;17.50;55.00;;;;;;5069606;28;20257;-46
2021/09/23 09:41:37;;;;;;;7.82;5.40;;;17.50;55.00;;;;;;5070465;28;20195;-45
2021/09/23 09:44:10;;;;;;;7.28;5.45;;;17.50;54.90;;;;;;5065677;28;20300;-48
2021/09/23 09:46:41;;;;;;;7.78;5.10;;;17.50;55.50;;;;;;5070793;28;20199;-46
2021/09/23 09:49:12;;;;;;;6.95;5.32;;;17.50;56.00;;;;;;5062527;28;20255;-46
2021/09/23 09:51:43;;;;;;;6.15;5.05;;;17.60;56.20;;;;;;5068597;28;20233;-46
2021/09/23 09:54:14;;;;;;;6.03;5.32;;;17.60;56.10;;;;;;5070420;28;20236;-57
2021/09/23 09:56:47;;;;;;;5.38;4.80;;;17.60;55.80;;;;;;5067517;28;20279;-48
2021/09/23 09:59:18;;;;;;;7.10;4.63;;;17.60;55.60;;;;;;5069561;28;20254;-46
2021/09/23 10:01:49;;;;;;;6.88;4.85;;;17.50;55.40;;;;;;5069255;28;20673;-46
2021/09/23 10:04:20;;;;;;;5.93;5.18;;;17.50;55.30;;;;;;5066039;28;20241;-46
2021/09/23 10:06:50;;;;;;;6.90;4.97;;;17.50;55.30;;;;;;5069965;28;20260;-46
2021/09/23 10:09:21;;;;;;;6.03;4.97;;;17.50;55.30;;;;;;5070028;28;20218;-50
2021/09/23 10:11:53;;;;;;;7.18;4.95;;;17.50;55.20;;;;;;5070871;28;20234;-46
2021/09/23 10:14:24;;;;;;;6.25;5.28;;;17.50;55.20;;;;;;5070126;28;20199;-46
2021/09/23 10:16:58;;;;;;;6.82;5.22;;;17.50;55.10;;;;;;5070328;28;20198;-46
2021/09/23 10:19:28;;;;;;;7.40;5.90;;;17.50;55.10;;;;;;5070236;28;20245;-51
2021/09/23 10:21:58;;;;;;;7.60;5.57;;;17.50;55.20;;;;;;5070912;28;20233;-46
2021/09/23 10:24:29;;;;;;;6.30;5.18;;;17.50;55.10;;;;;;5069887;28;20191;-47
2021/09/23 10:27:01;;;;;;;8.43;5.57;;;17.50;55.00;;;;;;5071100;28;20195;-46
2021/09/23 10:29:32;;;;;;;7.60;5.95;;;17.50;55.00;;;;;;5092676;22;20222;-50
2021/09/23 10:32:02;;;;;;;7.32;5.68;;;17.40;54.90;;;;;;5090529;28;20228;-52
2021/09/23 10:34:33;;;;;;;7.75;6.32;;;17.40;54.90;;;;;;5090943;28;20194;-52
2021/09/23 10:37:03;;;;;;;7.63;5.63;;;17.40;55.50;;;;;;5090410;28;20190;-52
2021/09/23 10:39:34;;;;;;;7.68;5.43;;;17.40;54.80;;;;;;5086985;28;20218;-51
2021/09/23 10:42:11;;;;;;;7.10;5.55;;;17.40;54.90;;;;;;5090270;28;20201;-51
2021/09/23 10:44:42;;;;;;;8.18;5.63;;;17.40;54.80;;;;;;5090053;28;20237;-49
2021/09/23 10:47:12;;;;;;;6.03;5.20;;;17.30;54.80;;;;;;5087327;28;20251;-52
2021/09/23 10:49:43;;;;;;;6.00;5.00;;;17.30;54.80;;;;;;5090263;28;20279;-50
2021/09/23 10:52:14;;;;;;;6.60;5.22;;;17.30;54.70;;;;;;5089835;28;20692;-52
2021/09/23 10:54:44;;;;;;;6.85;5.45;;;17.30;54.70;;;;;;5090752;28;20238;-51
2021/09/23 10:57:17;;;;;;;6.25;4.90;;;17.30;54.70;;;;;;5089768;28;20236;-50
2021/09/23 10:59:48;;;;;;;7.18;5.38;;;17.30;54.70;;;;;;5076180;28;20265;-53
2021/09/23 11:02:25;;;;;;;6.40;4.90;;;17.30;54.70;;;;;;5074431;28;20703;-51
2021/09/23 11:04:56;;;;;;;6.68;5.30;;;17.20;54.70;;;;;;5092624;28;20249;-52
2021/09/23 11:07:27;;;;;;;7.15;5.20;;;17.30;54.70;;;;;;5095281;28;20305;-51
2021/09/23 11:10:15;;;;;;;5.85;5.05;;;17.20;54.70;;;;;;5093592;28;20216;-48
2021/09/23 11:13:00;;;;;;;6.13;5.05;;;17.20;54.70;;;;;;5094280;28;20732;-51
2021/09/23 11:15:31;;;;;;;6.88;5.32;;;17.20;54.70;;;;;;5094300;28;20295;-52
2021/09/23 11:18:02;;;;;;;6.53;5.38;;;17.20;54.70;;;;;;5094746;28;20252;-52
2021/09/23 11:20:33;;;;;;;7.32;5.40;;;17.10;54.60;;;;;;5094179;28;20285;-49
2021/09/23 11:23:04;;;;;;;6.40;5.35;;;17.10;54.60;;;;;;5093145;28;20666;-50
2021/09/23 11:25:35;;;;;;;7.40;5.57;;;17.10;54.60;;;;;;5093784;28;20312;-50
2021/09/23 11:28:08;;;;;;;6.15;5.50;;;17.10;54.60;;;;;;5094492;28;20249;-51
2021/09/23 11:30:39;;;;;;;6.97;5.25;;;17.10;54.60;;;;;;5107587;22;20246;-48
2021/09/23 11:33:10;;;;;;;7.32;4.90;;;17.10;54.60;;;;;;5073867;28;20207;-48
2021/09/23 11:35:41;;;;;;;14.00;5.97;;;17.10;54.60;;;;;;5074033;28;20199;-47
2021/09/23 11:38:14;;;;;;;7.72;5.57;;;17.00;54.60;;;;;;5073385;28;20269;-46
2021/09/23 11:40:45;;;;;;;9.35;5.20;;;17.00;54.60;;;;;;5072811;28;20771;-48
2021/09/23 11:43:19;;;;;;;7.20;5.32;;;17.00;54.60;;;;;;5072897;28;20226;-47
2021/09/23 11:45:49;;;;;;;9.45;5.53;;;17.00;54.60;;;;;;5073048;28;20262;-47
2021/09/23 11:48:23;;;;;;;8.70;5.47;;;17.00;54.60;;;;;;5072853;28;20210;-47
2021/09/23 11:50:55;;;;;;;7.80;5.85;;;17.00;54.60;;;;;;5073752;28;20195;-45
2021/09/23 11:53:25;;;;;;;7.50;5.70;;;17.00;54.60;;;;;;5073520;28;20233;-48
2021/09/23 11:56:03;;;;;;;6.22;5.20;;;17.00;54.60;;;;;;5073953;28;20191;-50
2021/09/23 11:58:38;;;;;;;7.78;6.00;;;16.90;54.50;;;;;;5072993;28;20442;-56
2021/09/23 12:01:08;;;;;;;6.93;5.75;;;16.90;54.50;;;;;;5072765;28;20191;-48
2021/09/23 12:03:39;;;;;;;6.20;5.60;;;16.90;54.50;;;;;;5073643;28;20235;-55
2021/09/23 12:06:11;;;;;;;6.50;5.35;;;16.90;54.60;;;;;;5072776;28;20309;-50
2021/09/23 12:08:42;;;;;;;5.85;4.90;;;16.90;54.60;;;;;;5072610;28;20214;-46
2021/09/23 12:11:12;;;;;;;7.88;5.72;;;16.90;54.60;;;;;;5073115;28;20248;-59
2021/09/23 12:13:45;;;;;;;6.70;5.72;;;16.80;54.50;;;;;;5073070;28;20230;-45
2021/09/23 12:16:16;;;;;;;6.90;5.60;;;16.90;54.60;;;;;;5071263;28;20205;-51
2021/09/23 12:18:46;;;;;;;8.40;5.13;;;16.80;54.60;;;;;;5069773;28;20250;-50
2021/09/23 12:21:18;;;;;;;6.25;5.30;;;16.80;54.60;;;;;;5069448;28;20226;-51
2021/09/23 12:23:48;;;;;;;7.78;5.22;;;16.80;54.50;;;;;;5072917;28;20195;-49
2021/09/23 12:26:20;;;;;;;6.63;5.00;;;16.80;54.60;;;;;;5072376;28;20254;-48
2021/09/23 12:29:02;;;;;;;6.20;5.22;;;16.80;54.50;;;;;;5072357;28;20250;-48
2021/09/23 12:31:38;;;;;;;5.65;4.93;;;16.80;54.60;;;;;;5072645;28;20226;-48
2021/09/23 12:34:10;;;;;;;6.70;5.00;;;16.80;54.50;;;;;;5072235;28;20340;-46
2021/09/23 12:36:41;;;;;;;9.38;5.50;;;16.80;54.60;;;;;;5073263;28;20239;-51
2021/09/23 12:39:18;;;;;;;5.28;4.50;;;16.80;54.60;;;;;;5063236;28;20215;-46
2021/09/23 12:42:04;;;;;;;6.28;4.82;;;16.70;54.60;;;;;;5052442;28;20203;-47
2021/09/23 12:44:36;;;;;;;6.47;4.70;;;16.70;54.60;;;;;;5069653;28;20227;-46
2021/09/23 12:47:15;;;;;;;6.07;5.15;;;16.70;54.60;;;;;;5072950;28;20273;-51
2021/09/23 12:49:57;;;;;;;6.13;4.50;;;16.70;54.60;;;;;;5071993;28;20203;-46
2021/09/23 12:52:30;;;;;;;7.85;5.80;;;16.70;54.60;;;;;;5052315;28;20561;-47
2021/09/23 12:55:01;;;;;;;6.65;4.43;;;16.70;54.60;;;;;;5052312;28;20195;-45
2021/09/23 12:57:32;;;;;;;6.50;4.80;;;16.70;54.60;;;;;;5051916;28;20251;-47
2021/09/23 13:00:10;;;;;;;8.02;5.35;;;16.70;54.60;;;;;;5067027;28;20230;-48
2021/09/23 13:02:41;;;;;;;5.45;4.38;;;16.70;54.60;;;;;;5070869;28;20255;-46
2021/09/23 13:05:12;;;;;;;7.13;5.30;;;16.70;54.70;;;;;;5072377;28;20222;-46
2021/09/23 13:07:49;;;;;;;6.88;5.00;;;16.70;54.60;;;;;;5071251;28;20311;-45